Time;durP1;ratioP1;P1;durP2;ratioP2;P2;SDS_P1;SDS_P2;PMS_P1;PMS_P2;Temp;Humidity;BMP_temperature;BMP_pressure;BME280_temperature;BME280_humidity;BME280_pressure;Samples;Min_cycle;Max_cycle;Signal;HPM_P1;HPM_P2
2023/04/19 00:00:51;;;;;;;3.08;1.88;;;;;;;-147.53;100.00;57128.34;10454390;28;20063;-80
2023/04/19 00:05:53;;;;;;;3.80;1.77;;;;;;;-147.53;100.00;57128.34;10454037;28;20052;-81
2023/04/19 00:10:54;;;;;;;3.13;1.63;;;;;;;-147.53;100.00;57128.34;10452977;28;20056;-81
2023/04/19 00:15:56;;;;;;;4.07;1.58;;;;;;;-147.53;100.00;57128.34;10459986;28;20060;-81
2023/04/19 00:21:43;;;;;;;4.40;2.10;;;;;;;-147.53;100.00;57128.34;10470684;28;20053;-81
2023/04/19 00:28:02;;;;;;;4.72;2.53;;;;;;;-147.53;100.00;57128.34;10455119;28;20088;-81
2023/04/19 00:34:08;;;;;;;3.22;1.65;;;;;;;-147.53;100.00;57128.34;10452719;28;20048;-81
2023/04/19 00:39:10;;;;;;;3.88;1.50;;;;;;;-147.53;100.00;57128.34;10453788;28;20096;-81
2023/04/19 00:44:12;;;;;;;1.73;1.35;;;;;;;-147.53;100.00;57128.34;10452997;28;20044;-81
2023/04/19 00:49:16;;;;;;;4.40;2.13;;;;;;;-147.53;100.00;57128.34;10453858;28;20067;-81
2023/04/19 00:54:19;;;;;;;5.13;2.22;;;;;;;-147.53;100.00;57128.34;10436933;28;20104;-81
2023/04/19 01:01:01;;;;;;;;;;;;;;;;;;;;;
2023/04/19 01:06:44;;;;;;;4.20;1.35;;;;;;;-147.53;100.00;57128.34;10452745;28;20091;-81
2023/04/19 01:11:46;;;;;;;2.10;1.42;;;;;;;-147.53;100.00;57128.34;10451559;28;20068;-81
2023/04/19 01:16:49;;;;;;;4.95;2.17;;;;;;;-147.53;100.00;57128.34;10453741;28;20056;-81
2023/04/19 01:21:51;;;;;;;1.92;0.98;;;;;;;-147.53;100.00;57128.34;10453245;28;20052;-81
2023/04/19 01:26:53;;;;;;;4.50;1.52;;;;;;;-147.53;100.00;57128.34;10452670;28;20053;-81
2023/04/19 01:31:55;;;;;;;2.03;1.30;;;;;;;-147.53;100.00;57128.34;10453127;28;20456;-81
2023/04/19 01:36:57;;;;;;;1.60;0.95;;;;;;;-147.53;100.00;57128.34;10433728;28;20118;-78
2023/04/19 01:41:58;;;;;;;4.32;1.55;;;;;;;-147.53;100.00;57128.34;10433117;28;20057;-78
2023/04/19 01:47:00;;;;;;;1.52;0.93;;;;;;;-147.53;100.00;57128.34;10435194;28;20501;-78
2023/04/19 01:52:02;;;;;;;4.40;2.05;;;;;;;-147.53;100.00;57128.34;10452297;28;20115;-78
2023/04/19 01:57:04;;;;;;;2.45;1.55;;;;;;;-147.53;100.00;57128.34;10436773;28;20048;-78
2023/04/19 02:02:06;;;;;;;3.95;1.35;;;;;;;-147.53;100.00;57128.34;10435753;28;20045;-78
2023/04/19 02:07:08;;;;;;;2.75;1.40;;;;;;;-147.53;100.00;57128.34;10434752;28;20053;-78
2023/04/19 02:12:10;;;;;;;1.13;1.02;;;;;;;-147.53;100.00;57128.34;10434770;28;20053;-78
2023/04/19 02:17:12;;;;;;;2.58;1.45;;;;;;;-147.53;100.00;57128.34;10432814;28;20057;-78
2023/04/19 02:22:14;;;;;;;1.80;1.02;;;;;;;-147.53;100.00;57128.34;10432684;28;20049;-78
2023/04/19 02:27:16;;;;;;;3.35;1.75;;;;;;;-147.53;100.00;57128.34;10433801;28;20103;-78
2023/04/19 02:32:17;;;;;;;2.33;1.17;;;;;;;-147.53;100.00;57128.34;10450822;28;20057;-78
2023/04/19 02:37:19;;;;;;;2.25;1.45;;;;;;;-147.53;100.00;57128.34;10433710;28;20128;-77
2023/04/19 02:42:20;;;;;;;1.58;1.15;;;;;;;-147.53;100.00;57128.34;10450788;28;20188;-78
2023/04/19 02:47:22;;;;;;;1.35;0.75;;;;;;;-147.53;100.00;57128.34;10451882;28;20049;-78
2023/04/19 02:52:25;;;;;;;2.92;1.30;;;;;;;-147.53;100.00;57128.34;10456923;28;20129;-78
2023/04/19 02:57:27;;;;;;;0.60;0.50;;;;;;;-147.53;100.00;57128.34;10424010;28;20100;-78
2023/04/19 03:02:29;;;;;;;2.55;1.35;;;;;;;-147.53;100.00;57128.34;10457688;28;20041;-78
2023/04/19 03:07:31;;;;;;;1.23;0.80;;;;;;;-147.53;100.00;57128.34;10443444;28;20464;-78
2023/04/19 03:12:33;;;;;;;2.53;1.45;;;;;;;-147.53;100.00;57128.34;10459912;28;20149;-78
2023/04/19 03:17:36;;;;;;;2.28;1.48;;;;;;;-147.53;100.00;57128.34;10440550;28;20060;-78
2023/04/19 03:23:13;;;;;;;2.00;0.98;;;;;;;-147.53;100.00;57128.34;10439534;28;20060;-78
2023/04/19 03:35:29;;;;;;;0.95;0.85;;;;;;;-147.53;100.00;57128.34;10404575;28;20044;-77
2023/04/19 03:40:36;;;;;;;3.20;1.25;;;;;;;-147.53;100.00;57128.34;10438516;28;20053;-78
2023/04/19 03:45:38;;;;;;;0.73;0.50;;;;;;;-147.53;100.00;57128.34;10433019;28;20044;-78
2023/04/19 03:50:40;;;;;;;2.40;1.55;;;;;;;-147.53;100.00;57128.34;10438522;28;20066;-79
2023/04/19 03:55:46;;;;;;;3.38;1.42;;;;;;;-147.53;100.00;57128.34;10422903;28;20053;-78
2023/04/19 04:00:47;;;;;;;8.82;0.80;;;;;;;-147.53;100.00;57128.34;10437717;28;20095;-77
2023/04/19 04:05:49;;;;;;;2.83;1.02;;;;;;;-147.53;100.00;57128.34;10403230;28;20106;-78
2023/04/19 04:10:53;;;;;;;2.42;1.35;;;;;;;-147.53;100.00;57128.34;10421909;28;20052;-77
2023/04/19 04:15:55;;;;;;;1.95;1.23;;;;;;;-147.53;100.00;57128.34;10406670;28;20420;-78
2023/04/19 04:20:57;;;;;;;1.00;0.80;;;;;;;-147.53;100.00;57128.34;10441417;28;20067;-77
2023/04/19 04:25:59;;;;;;;0.63;0.63;;;;;;;-147.53;100.00;57128.34;10423152;28;20513;-78
2023/04/19 04:31:11;;;;;;;2.05;0.90;;;;;;;-147.53;100.00;57128.34;10421235;28;20140;-80
2023/04/19 04:36:15;;;;;;;2.83;1.45;;;;;;;-147.53;100.00;57128.34;10445686;28;20469;-80
2023/04/19 04:41:19;;;;;;;1.38;1.23;;;;;;;-147.53;100.00;57128.34;10463813;28;20045;-80
2023/04/19 04:46:24;;;;;;;2.05;1.27;;;;;;;-147.53;100.00;57128.34;10430371;28;20052;-80
2023/04/19 04:51:26;;;;;;;2.85;1.55;;;;;;;-147.53;100.00;57128.34;10431437;28;20102;-80
2023/04/19 04:56:30;;;;;;;2.75;1.42;;;;;;;-147.53;100.00;57128.34;10434137;28;20045;-80
2023/04/19 05:01:32;;;;;;;2.08;1.42;;;;;;;-147.53;100.00;57128.34;10447759;28;20048;-81
2023/04/19 05:06:35;;;;;;;0.63;0.55;;;;;;;-147.53;100.00;57128.34;10448738;28;20044;-79
2023/04/19 05:11:37;;;;;;;0.20;0.20;;;;;;;-147.53;100.00;57128.34;10449882;28;20056;-79
2023/04/19 05:16:48;;;;;;;1.25;0.70;;;;;;;-147.53;100.00;57128.34;10445546;28;20060;-81
2023/04/19 05:21:51;;;;;;;1.27;1.05;;;;;;;-147.53;100.00;57128.34;10446603;28;20048;-80
2023/04/19 05:26:53;;;;;;;6.50;0.90;;;;;;;-147.53;100.00;57128.34;10461521;28;20085;-80
2023/04/19 05:31:56;;;;;;;4.68;1.35;;;;;;;-147.53;100.00;57128.34;10447929;28;20072;-80
2023/04/19 05:37:02;;;;;;;2.53;1.30;;;;;;;-147.53;100.00;57128.34;10454877;28;20056;-80
2023/04/19 05:42:05;;;;;;;2.05;1.20;;;;;;;-147.53;100.00;57128.34;10451164;28;20079;-80
2023/04/19 05:47:31;;;;;;;11.32;0.70;;;;;;;-147.53;100.00;57128.34;10433800;28;20057;-81
2023/04/19 05:53:02;;;;;;;1.77;0.90;;;;;;;-147.53;100.00;57128.34;10438960;28;20057;-81
2023/04/19 05:58:14;;;;;;;1.08;0.57;;;;;;;-147.53;100.00;57128.34;10419817;28;20045;-81
2023/04/19 06:03:22;;;;;;;1.02;0.70;;;;;;;-147.53;100.00;57128.34;10418929;28;20065;-81
2023/04/19 06:08:24;;;;;;;1.20;0.82;;;;;;;-147.53;100.00;57128.34;10424613;28;20045;-82
2023/04/19 06:13:28;;;;;;;1.52;1.10;;;;;;;-147.53;100.00;57128.34;10446044;28;20041;-80
2023/04/19 06:18:30;;;;;;;1.88;0.60;;;;;;;-147.53;100.00;57128.34;10422279;28;20045;-80
2023/04/19 06:23:32;;;;;;;1.20;0.60;;;;;;;-147.53;100.00;57128.34;10444626;28;20033;-79
2023/04/19 06:28:38;;;;;;;1.65;1.13;;;;;;;-147.53;100.00;57128.34;10445091;28;20435;-79
2023/04/19 06:33:40;;;;;;;0.50;0.47;;;;;;;-147.53;100.00;57128.34;10453975;28;20052;-80
2023/04/19 06:38:43;;;;;;;2.10;0.95;;;;;;;-147.53;100.00;57128.34;10449104;28;20042;-79
2023/04/19 06:43:47;;;;;;;0.47;0.40;;;;;;;-147.53;100.00;57128.34;10440830;28;20239;-80
2023/04/19 06:48:49;;;;;;;1.73;0.82;;;;;;;-147.53;100.00;57128.34;10462630;28;20079;-81
2023/04/19 06:53:51;;;;;;;0.93;0.80;;;;;;;-147.53;100.00;57128.34;10454344;28;20049;-82
2023/04/19 06:58:53;;;;;;;1.42;0.98;;;;;;;-147.53;100.00;57128.34;10436329;28;20136;-80
2023/04/19 07:03:55;;;;;;;0.63;0.47;;;;;;;-147.53;100.00;57128.34;10419305;28;20467;-80
2023/04/19 07:08:58;;;;;;;2.00;0.80;;;;;;;-147.53;100.00;57128.34;10440074;28;20045;-81
2023/04/19 07:14:00;;;;;;;2.53;0.90;;;;;;;-147.53;100.00;57128.34;10449421;28;20064;-81
2023/04/19 07:19:02;;;;;;;3.58;1.42;;;;;;;-147.53;100.00;57128.34;10451484;28;20072;-80
2023/04/19 07:24:05;;;;;;;1.00;0.82;;;;;;;-147.53;100.00;57128.34;10463786;28;20048;-81
2023/04/19 07:29:07;;;;;;;0.88;0.75;;;;;;;-147.53;100.00;57128.34;10427684;28;20056;-81
2023/04/19 07:34:09;;;;;;;2.72;1.10;;;;;;;-147.53;100.00;57128.34;10435239;28;20115;-81
2023/04/19 07:39:12;;;;;;;3.30;0.95;;;;;;;-147.53;100.00;57128.34;10441423;28;20087;-79
2023/04/19 07:44:13;;;;;;;1.75;0.88;;;;;;;-147.53;100.00;57128.34;10446285;28;20125;-80
2023/04/19 07:49:15;;;;;;;0.82;0.70;;;;;;;-147.53;100.00;57128.34;10442609;28;20073;-79
2023/04/19 07:54:21;;;;;;;10.27;1.25;;;;;;;-147.53;100.00;57128.34;10461243;28;20124;-79
2023/04/19 07:59:37;;;;;;;2.40;0.90;;;;;;;-147.53;100.00;57128.34;10451095;28;20053;-78
2023/04/19 08:05:01;;;;;;;1.48;0.80;;;;;;;-147.53;100.00;57128.34;10436259;28;20107;-81
2023/04/19 08:10:31;;;;;;;2.17;0.90;;;;;;;-147.53;100.00;57128.34;10448568;28;20053;-79
2023/04/19 08:43:33;;;;;;;1.00;0.50;;;;;;;-147.53;100.00;57128.34;10376258;28;20068;-80
2023/04/19 08:49:04;;;;;;;3.42;0.95;;;;;;;-147.53;100.00;57128.34;10331031;28;20053;-81
2023/04/19 09:00:51;;;;;;;1.02;0.60;;;;;;;-147.53;100.00;57128.34;10328476;28;20469;-78
2023/04/19 09:05:53;;;;;;;0.85;0.63;;;;;;;-147.53;100.00;57128.34;10301405;28;20108;-83
2023/04/19 09:10:57;;;;;;;1.25;0.73;;;;;;;-147.53;100.00;57128.34;10320746;28;20055;-80
2023/04/19 09:15:59;;;;;;;3.95;1.08;;;;;;;-147.53;100.00;57128.34;10305749;28;20050;-83
2023/04/19 09:21:01;;;;;;;1.50;0.90;;;;;;;-147.53;100.00;57128.34;10322447;28;20563;-80
2023/04/19 09:26:03;;;;;;;1.23;0.70;;;;;;;-147.53;100.00;57128.34;10416910;28;20068;-80
2023/04/19 09:31:12;;;;;;;1.00;0.60;;;;;;;-147.53;100.00;57128.34;10449917;28;20408;-79
2023/04/19 09:36:34;;;;;;;1.00;0.73;;;;;;;-147.53;100.00;57128.34;10452613;28;20049;-83
2023/04/19 09:41:51;;;;;;;1.50;0.65;;;;;;;-147.53;100.00;57128.34;10436917;28;20053;-81
2023/04/19 09:46:54;;;;;;;1.00;0.75;;;;;;;-147.53;100.00;57128.34;10442398;28;20132;-80
2023/04/19 09:51:56;;;;;;;1.48;0.60;;;;;;;-147.53;100.00;57128.34;10459966;28;20153;-79
2023/04/19 09:56:59;;;;;;;2.35;0.98;;;;;;;-147.53;100.00;57128.34;10458766;28;20041;-78
2023/04/19 10:02:05;;;;;;;1.13;0.65;;;;;;;-147.53;100.00;57128.34;10426394;28;20053;-78
2023/04/19 10:07:07;;;;;;;1.73;0.85;;;;;;;-147.53;100.00;57128.34;10465958;28;20111;-77
2023/04/19 10:12:31;;;;;;;1.73;0.85;;;;;;;-147.53;100.00;57128.34;10451077;28;20064;-79
2023/04/19 10:17:53;;;;;;;2.85;1.10;;;;;;;-147.53;100.00;57128.34;10469603;28;20056;-78
2023/04/19 10:22:56;;;;;;;2.20;1.10;;;;;;;-147.53;100.00;57128.34;10447942;28;20121;-78
2023/04/19 10:27:57;;;;;;;0.77;0.65;;;;;;;-147.53;100.00;57128.34;10446458;28;20515;-77
2023/04/19 10:33:01;;;;;;;1.75;0.80;;;;;;;-147.53;100.00;57128.34;10446068;28;20122;-78
2023/04/19 10:38:15;;;;;;;1.42;0.60;;;;;;;-147.53;100.00;57128.34;10447442;28;20076;-79
2023/04/19 10:43:25;;;;;;;5.68;0.90;;;;;;;-147.53;100.00;57128.34;10418795;28;20055;-80
2023/04/19 10:48:32;;;;;;;1.85;0.90;;;;;;;-147.53;100.00;57128.34;10409639;28;20076;-78
2023/04/19 10:53:51;;;;;;;1.60;1.00;;;;;;;-147.53;100.00;57128.34;10428302;28;20076;-78
2023/04/19 10:58:59;;;;;;;0.93;0.63;;;;;;;-147.53;100.00;57128.34;10439061;28;20075;-79
2023/04/19 11:04:00;;;;;;;2.33;1.10;;;;;;;-147.53;100.00;57128.34;10416245;28;20049;-78
2023/04/19 11:09:05;;;;;;;2.50;1.42;;;;;;;-147.53;100.00;57128.34;10438133;28;20051;-79
2023/04/19 11:14:08;;;;;;;1.50;0.75;;;;;;;-147.53;100.00;57128.34;10438847;28;20049;-79
2023/04/19 11:19:16;;;;;;;1.15;0.73;;;;;;;-147.53;100.00;57128.34;10438996;28;20116;-81
2023/04/19 11:24:19;;;;;;;2.23;0.80;;;;;;;-147.53;100.00;57128.34;10436517;28;20049;-80
2023/04/19 11:29:21;;;;;;;1.00;0.65;;;;;;;-147.53;100.00;57128.34;10460456;28;20484;-81
2023/04/19 11:34:23;;;;;;;1.20;0.68;;;;;;;-147.53;100.00;57128.34;10463816;28;20057;-76
2023/04/19 11:39:25;;;;;;;1.05;0.73;;;;;;;-147.53;100.00;57128.34;10408301;28;20041;-78
2023/04/19 11:44:26;;;;;;;1.52;0.82;;;;;;;-147.53;100.00;57128.34;10438811;28;20060;-80
2023/04/19 11:49:30;;;;;;;7.13;0.95;;;;;;;-147.53;100.00;57128.34;10441440;28;20120;-78
2023/04/19 11:54:32;;;;;;;0.98;0.65;;;;;;;-147.53;100.00;57128.34;10453321;28;20049;-79
2023/04/19 11:59:35;;;;;;;1.60;0.70;;;;;;;-147.53;100.00;57128.34;10430872;28;20052;-79
2023/04/19 12:04:38;;;;;;;1.40;0.75;;;;;;;-147.53;100.00;57128.34;10462205;28;20068;-79
2023/04/19 12:09:40;;;;;;;1.10;0.65;;;;;;;-147.53;100.00;57128.34;10444155;28;20044;-79
2023/04/19 12:14:51;;;;;;;1.65;1.00;;;;;;;-147.53;100.00;57128.34;10434312;28;20041;-79
2023/04/19 12:19:52;;;;;;;2.42;1.02;;;;;;;-147.53;100.00;57128.34;10424992;28;20564;-77
2023/04/19 12:24:54;;;;;;;1.65;0.90;;;;;;;-147.53;100.00;57128.34;10424540;28;20048;-77
2023/04/19 12:29:56;;;;;;;2.40;1.05;;;;;;;-147.53;100.00;57128.34;10431602;28;20094;-77
2023/04/19 12:34:58;;;;;;;0.75;0.68;;;;;;;-147.53;100.00;57128.34;10414537;28;20072;-78
2023/04/19 12:40:00;;;;;;;1.08;0.70;;;;;;;-147.53;100.00;57128.34;10429295;28;20041;-77
2023/04/19 12:45:02;;;;;;;1.60;0.60;;;;;;;-147.53;100.00;57128.34;10449978;28;20041;-78
2023/04/19 12:50:04;;;;;;;2.13;0.98;;;;;;;-147.53;100.00;57128.34;10449053;28;20049;-79
2023/04/19 12:55:06;;;;;;;2.47;0.80;;;;;;;-147.53;100.00;57128.34;10447039;28;20127;-77
2023/04/19 13:00:11;;;;;;;2.42;0.90;;;;;;;-147.53;100.00;57128.34;10423647;28;20045;-77
2023/04/19 13:05:12;;;;;;;1.15;0.40;;;;;;;-147.53;100.00;57128.34;10421954;28;20444;-78
2023/04/19 13:10:14;;;;;;;0.80;0.73;;;;;;;-147.53;100.00;57128.34;10434406;28;20052;-77
2023/04/19 13:15:16;;;;;;;1.80;0.82;;;;;;;-147.53;100.00;57128.34;10448677;28;20049;-78
2023/04/19 13:20:18;;;;;;;1.35;0.85;;;;;;;-147.53;100.00;57128.34;10452872;28;20057;-77
2023/04/19 13:25:21;;;;;;;2.22;0.82;;;;;;;-147.53;100.00;57128.34;10434859;28;20060;-77
2023/04/19 13:30:22;;;;;;;1.73;0.73;;;;;;;-147.53;100.00;57128.34;10435763;28;20053;-78
2023/04/19 13:35:24;;;;;;;1.73;0.90;;;;;;;-147.53;100.00;57128.34;10432989;28;20621;-78
2023/04/19 13:40:25;;;;;;;2.78;0.80;;;;;;;-147.53;100.00;57128.34;10453750;28;20412;-78
2023/04/19 13:45:27;;;;;;;2.55;0.90;;;;;;;-147.53;100.00;57128.34;10433828;28;20049;-77
2023/04/19 13:50:29;;;;;;;2.58;0.95;;;;;;;-147.53;100.00;57128.34;10434796;28;20401;-76
2023/04/19 13:55:30;;;;;;;1.58;0.90;;;;;;;-147.53;100.00;57128.34;10451808;28;20049;-78
2023/04/19 14:00:32;;;;;;;1.45;0.82;;;;;;;-147.53;100.00;57128.34;10451839;28;20053;-78
2023/04/19 14:05:34;;;;;;;1.70;0.90;;;;;;;-147.53;100.00;57128.34;10450909;28;20065;-78
2023/04/19 14:10:36;;;;;;;2.20;1.10;;;;;;;-147.53;100.00;57128.34;10434727;28;20073;-79
2023/04/19 14:15:38;;;;;;;1.85;0.90;;;;;;;-147.53;100.00;57128.34;10454202;28;20064;-78
2023/04/19 14:20:40;;;;;;;1.98;1.10;;;;;;;-147.53;100.00;57128.34;10434239;28;20140;-78
2023/04/19 14:25:41;;;;;;;1.85;1.02;;;;;;;-147.53;100.00;57128.34;10446066;28;20056;-79
2023/04/19 14:30:43;;;;;;;2.78;1.08;;;;;;;-147.53;100.00;57128.34;10411192;28;20531;-78
2023/04/19 14:35:45;;;;;;;1.58;0.75;;;;;;;-147.53;100.00;57128.34;10439946;28;20110;-78
2023/04/19 14:40:47;;;;;;;1.15;0.90;;;;;;;-147.53;100.00;57128.34;10437828;28;20044;-78
2023/04/19 14:45:50;;;;;;;1.55;0.77;;;;;;;-147.53;100.00;57128.34;10427343;28;20608;-77
2023/04/19 14:50:52;;;;;;;3.00;1.23;;;;;;;-147.53;100.00;57128.34;10453566;28;20057;-81
2023/04/19 14:55:54;;;;;;;1.88;0.80;;;;;;;-147.53;100.00;57128.34;10447905;28;20106;-79
2023/04/19 15:00:57;;;;;;;2.95;1.20;;;;;;;-147.53;100.00;57128.34;10449413;28;20123;-79
2023/04/19 15:05:58;;;;;;;1.85;0.98;;;;;;;-147.53;100.00;57128.34;10448720;28;20057;-79
2023/04/19 15:11:00;;;;;;;1.95;0.80;;;;;;;-147.53;100.00;57128.34;10449737;28;20056;-80
2023/04/19 15:16:02;;;;;;;5.32;1.10;;;;;;;-147.53;100.00;57128.34;10431439;28;20052;-78
2023/04/19 15:21:04;;;;;;;1.27;0.73;;;;;;;-147.53;100.00;57128.34;10450260;28;20191;-81
2023/04/19 15:26:06;;;;;;;1.98;1.10;;;;;;;-147.53;100.00;57128.34;10453542;28;20049;-78
2023/04/19 15:31:09;;;;;;;2.35;0.88;;;;;;;-147.53;100.00;57128.34;10431949;28;20041;-79
2023/04/19 15:36:10;;;;;;;1.77;1.00;;;;;;;-147.53;100.00;57128.34;10445447;28;20064;-79
2023/04/19 15:41:12;;;;;;;4.25;1.48;;;;;;;-147.53;100.00;57128.34;10444959;28;20044;-79
2023/04/19 15:46:15;;;;;;;1.42;0.80;;;;;;;-147.53;100.00;57128.34;10427427;28;20269;-78
2023/04/19 15:51:16;;;;;;;1.70;0.93;;;;;;;-147.53;100.00;57128.34;10427568;28;20121;-77
2023/04/19 15:56:18;;;;;;;2.17;0.90;;;;;;;-147.53;100.00;57128.34;10441284;28;20406;-78
2023/04/19 16:01:21;;;;;;;3.15;1.20;;;;;;;-147.53;100.00;57128.34;10427717;28;20045;-78
2023/04/19 16:06:23;;;;;;;1.70;0.70;;;;;;;-147.53;100.00;57128.34;10445072;28;20084;-78
2023/04/19 16:11:25;;;;;;;1.80;0.85;;;;;;;-147.53;100.00;57128.34;10443416;28;20041;-78
2023/04/19 16:16:29;;;;;;;2.35;1.10;;;;;;;-147.53;100.00;57128.34;10425596;28;20048;-78
2023/04/19 16:22:00;;;;;;;2.05;0.88;;;;;;;-147.53;100.00;57128.34;10445029;28;20048;-83
2023/04/19 16:33:19;;;;;;;2.55;1.30;;;;;;;-147.53;100.00;57128.34;10434880;28;20420;-82
2023/04/19 16:38:21;;;;;;;1.83;0.85;;;;;;;-147.53;100.00;57128.34;10423363;28;20055;-79
2023/04/19 16:43:24;;;;;;;7.75;1.17;;;;;;;-147.53;100.00;57128.34;10442660;28;20080;-81
2023/04/19 16:48:25;;;;;;;0.80;0.50;;;;;;;-147.53;100.00;57128.34;10434150;28;20147;-82
2023/04/19 16:53:27;;;;;;;1.13;0.73;;;;;;;-147.53;100.00;57128.34;10429707;28;20130;-81
2023/04/19 16:58:29;;;;;;;3.60;0.98;;;;;;;-147.53;100.00;57128.34;10445707;28;20045;-81
2023/04/19 17:03:31;;;;;;;1.83;0.80;;;;;;;-147.53;100.00;57128.34;10416174;28;20704;-82
2023/04/19 17:08:33;;;;;;;1.95;0.85;;;;;;;-147.53;100.00;57128.34;10414572;28;20050;-81
2023/04/19 17:13:34;;;;;;;1.10;0.85;;;;;;;-147.53;100.00;57128.34;10450717;28;20048;-81
2023/04/19 17:18:36;;;;;;;1.70;0.82;;;;;;;-147.53;100.00;57128.34;10441560;28;20071;-81
2023/04/19 17:23:38;;;;;;;1.20;0.82;;;;;;;-147.53;100.00;57128.34;10435600;28;20045;-83
2023/04/19 17:28:40;;;;;;;2.53;0.98;;;;;;;-147.53;100.00;57128.34;10432755;28;20493;-81
2023/04/19 17:33:42;;;;;;;1.13;0.50;;;;;;;-147.53;100.00;57128.34;10438342;28;20095;-81
2023/04/19 17:38:44;;;;;;;3.75;1.00;;;;;;;-147.53;100.00;57128.34;10438232;28;20041;-82
2023/04/19 17:43:46;;;;;;;0.70;0.60;;;;;;;-147.53;100.00;57128.34;10435794;28;20060;-81
2023/04/19 17:48:48;;;;;;;3.45;1.13;;;;;;;-147.53;100.00;57128.34;10398921;28;20045;-82
2023/04/19 17:53:50;;;;;;;2.20;0.98;;;;;;;-147.53;100.00;57128.34;10427023;28;20066;-83
2023/04/19 17:58:52;;;;;;;0.73;0.70;;;;;;;-147.53;100.00;57128.34;10447956;28;20049;-81
2023/04/19 18:03:53;;;;;;;0.95;0.60;;;;;;;-147.53;100.00;57128.34;10413203;28;20355;-81
2023/04/19 18:08:55;;;;;;;3.30;0.90;;;;;;;-147.53;100.00;57128.34;10435616;28;20136;-80
2023/04/19 18:13:57;;;;;;;2.55;0.60;;;;;;;-147.53;100.00;57128.34;10451454;28;20056;-80
2023/04/19 18:18:58;;;;;;;2.75;0.82;;;;;;;-147.53;100.00;57128.34;10442201;28;20048;-82
2023/04/19 18:24:00;;;;;;;4.97;0.88;;;;;;;-147.53;100.00;57128.34;10435668;28;20124;-80
2023/04/19 18:29:02;;;;;;;1.27;0.63;;;;;;;-147.53;100.00;57128.34;10432428;28;20163;-80
2023/04/19 18:34:04;;;;;;;1.65;0.90;;;;;;;-147.53;100.00;57128.34;10420018;28;20086;-82
2023/04/19 18:39:06;;;;;;;2.17;0.70;;;;;;;-147.53;100.00;57128.34;10455248;28;20125;-82
2023/04/19 18:44:07;;;;;;;2.17;0.90;;;;;;;-147.53;100.00;57128.34;10430863;28;20079;-82
2023/04/19 18:49:12;;;;;;;0.98;0.70;;;;;;;-147.53;100.00;57128.34;10454551;28;20064;-81
2023/04/19 18:54:13;;;;;;;6.35;0.80;;;;;;;-147.53;100.00;57128.34;10417225;28;20489;-81
2023/04/19 18:59:15;;;;;;;5.05;1.00;;;;;;;-147.53;100.00;57128.34;10455973;28;20053;-80
2023/04/19 19:04:20;;;;;;;2.17;0.75;;;;;;;-147.53;100.00;57128.34;10421766;28;20049;-80
2023/04/19 19:09:41;;;;;;;3.75;1.58;;;;;;;-147.53;100.00;57128.34;10436853;28;20041;-80
2023/04/19 19:14:56;;;;;;;2.10;0.80;;;;;;;-147.53;100.00;57128.34;10435454;28;20070;-80
2023/04/19 19:19:57;;;;;;;1.75;1.05;;;;;;;-147.53;100.00;57128.34;10435789;28;20051;-82
2023/04/19 19:24:59;;;;;;;1.50;0.70;;;;;;;-147.53;100.00;57128.34;10436248;28;20053;-80
2023/04/19 19:30:02;;;;;;;2.60;1.15;;;;;;;-147.53;100.00;57128.34;10434288;28;20551;-82
2023/04/19 19:35:07;;;;;;;1.77;0.88;;;;;;;-147.53;100.00;57128.34;10435431;28;20053;-82
2023/04/19 19:40:09;;;;;;;0.52;0.50;;;;;;;-147.53;100.00;57128.34;10440639;28;20049;-80
2023/04/19 19:45:12;;;;;;;0.70;0.55;;;;;;;-147.53;100.00;57128.34;10435671;28;20056;-81
2023/04/19 19:50:14;;;;;;;1.23;0.77;;;;;;;-147.53;100.00;57128.34;10461634;28;20057;-82
2023/04/19 19:55:18;;;;;;;2.00;0.73;;;;;;;-147.53;100.00;57128.34;10460321;28;20061;-80
2023/04/19 20:00:20;;;;;;;2.20;0.73;;;;;;;-147.53;100.00;57128.34;10443824;28;20041;-80
2023/04/19 20:05:24;;;;;;;2.53;1.38;;;;;;;-147.53;100.00;57128.34;10460445;28;20049;-81
2023/04/19 20:10:27;;;;;;;0.80;0.60;;;;;;;-147.53;100.00;57128.34;10439584;28;20134;-80
2023/04/19 20:15:29;;;;;;;10.07;1.00;;;;;;;-147.53;100.00;57128.34;10438860;28;20060;-81
2023/04/19 20:20:30;;;;;;;2.35;0.90;;;;;;;-147.53;100.00;57128.34;10439664;28;20049;-81
2023/04/19 20:25:32;;;;;;;3.83;0.90;;;;;;;-147.53;100.00;57128.34;10437992;28;20049;-82
2023/04/19 20:30:34;;;;;;;4.25;0.60;;;;;;;-147.53;100.00;57128.34;10438871;28;20049;-81
2023/04/19 20:35:36;;;;;;;3.22;0.85;;;;;;;-147.53;100.00;57128.34;10455597;28;20238;-80
2023/04/19 20:40:38;;;;;;;2.25;1.10;;;;;;;-147.53;100.00;57128.34;10457014;28;20497;-81
2023/04/19 20:45:39;;;;;;;3.60;1.40;;;;;;;-147.53;100.00;57128.34;10436797;28;20359;-81
2023/04/19 20:50:41;;;;;;;3.25;0.88;;;;;;;-147.53;100.00;57128.34;10437355;28;20481;-80
2023/04/19 20:55:43;;;;;;;0.80;0.63;;;;;;;-147.53;100.00;57128.34;10436234;28;20049;-81
2023/04/19 21:00:45;;;;;;;0.93;0.60;;;;;;;-147.53;100.00;57128.34;10437115;28;20049;-81
2023/04/19 21:05:47;;;;;;;1.00;0.50;;;;;;;-147.53;100.00;57128.34;10436647;28;20055;-81
2023/04/19 21:10:48;;;;;;;1.27;0.57;;;;;;;-147.53;100.00;57128.34;10437127;28;20076;-80
2023/04/19 21:15:50;;;;;;;4.15;1.25;;;;;;;-147.53;100.00;57128.34;10436317;28;20071;-81
2023/04/19 21:20:51;;;;;;;3.63;0.70;;;;;;;-147.53;100.00;57128.34;10452833;28;20095;-80
2023/04/19 21:25:53;;;;;;;1.13;0.68;;;;;;;-147.53;100.00;57128.34;10454060;28;20080;-80
2023/04/19 21:30:56;;;;;;;3.53;0.70;;;;;;;-147.53;100.00;57128.34;10453966;28;20045;-80
2023/04/19 21:35:58;;;;;;;1.63;0.80;;;;;;;-147.53;100.00;57128.34;10434073;28;20052;-80
2023/04/19 21:41:00;;;;;;;1.45;0.75;;;;;;;-147.53;100.00;57128.34;10417815;28;20067;-80
2023/04/19 21:46:03;;;;;;;1.75;0.80;;;;;;;-147.53;100.00;57128.34;10452139;28;20052;-83
2023/04/19 21:51:05;;;;;;;0.95;0.55;;;;;;;-147.53;100.00;57128.34;10417884;28;20140;-80
2023/04/19 21:56:07;;;;;;;1.60;0.80;;;;;;;-147.53;100.00;57128.34;10432513;28;20049;-81
2023/04/19 22:01:09;;;;;;;0.38;0.30;;;;;;;-147.53;100.00;57128.34;10430864;28;20046;-80
2023/04/19 22:06:11;;;;;;;1.83;0.90;;;;;;;-147.53;100.00;57128.34;10434163;28;20045;-80
2023/04/19 22:11:14;;;;;;;1.42;0.90;;;;;;;-147.53;100.00;57128.34;10424838;28;20045;-80
2023/04/19 22:16:16;;;;;;;6.85;1.00;;;;;;;-147.53;100.00;57128.34;10431934;28;20483;-80
2023/04/19 22:21:17;;;;;;;1.58;0.80;;;;;;;-147.53;100.00;57128.34;10449852;28;20063;-80
2023/04/19 22:26:20;;;;;;;0.98;0.60;;;;;;;-147.53;100.00;57128.34;10434011;28;20057;-80
2023/04/19 22:31:21;;;;;;;1.60;1.20;;;;;;;-147.53;100.00;57128.34;10451344;28;20486;-80
2023/04/19 22:36:23;;;;;;;2.53;1.25;;;;;;;-147.53;100.00;57128.34;10423024;28;20509;-79
2023/04/19 22:41:25;;;;;;;1.13;0.90;;;;;;;-147.53;100.00;57128.34;10419560;28;20167;-78
2023/04/19 22:46:26;;;;;;;1.50;1.00;;;;;;;-147.53;100.00;57128.34;10438277;28;20057;-78
2023/04/19 22:51:29;;;;;;;1.73;1.00;;;;;;;-147.53;100.00;57128.34;10439910;28;20114;-78
2023/04/19 22:56:30;;;;;;;0.65;0.55;;;;;;;-147.53;100.00;57128.34;10422190;28;20072;-78
2023/04/19 23:01:33;;;;;;;1.70;0.82;;;;;;;-147.53;100.00;57128.34;10421586;28;20045;-78
2023/04/19 23:06:35;;;;;;;4.97;1.58;;;;;;;-147.53;100.00;57128.34;10439473;28;20045;-78
2023/04/19 23:11:38;;;;;;;2.08;0.82;;;;;;;-147.53;100.00;57128.34;10445904;28;20417;-78
2023/04/19 23:16:40;;;;;;;2.95;0.90;;;;;;;-147.53;100.00;57128.34;10445404;28;20045;-78
2023/04/19 23:21:41;;;;;;;1.88;0.90;;;;;;;-147.53;100.00;57128.34;10427566;28;20459;-79
2023/04/19 23:26:43;;;;;;;1.95;0.90;;;;;;;-147.53;100.00;57128.34;10427725;28;20521;-78
2023/04/19 23:31:44;;;;;;;1.08;0.63;;;;;;;-147.53;100.00;57128.34;10444846;28;20045;-78
2023/04/19 23:36:47;;;;;;;1.92;0.85;;;;;;;-147.53;100.00;57128.34;10445105;28;20294;-79